Time,TemperatureF,DewpointF,PressureIn,WindDirection,WindDirectionDegrees,WindSpeedMPH,WindSpeedGustMPH,Humidity,HourlyPrecipIn,Conditions,Clouds,dailyrainin,SoftwareType,DateUTC
2013-03-12 00:02:00,61.0,57.0,29.90,SE,136,1.0,4.0,87,0.00,,,0.00,,2013-03-12 04:02:00,
2013-03-12 00:13:00,61.0,57.0,29.90,SE,136,1.0,4.0,87,0.00,,,0.00,,2013-03-12 04:13:00,
2013-03-12 00:22:00,61.0,57.0,29.90,SW,227,1.0,3.0,87,0.00,,,0.00,,2013-03-12 04:22:00,
2013-03-12 00:32:00,62.0,58.0,29.88,ENE,70,1.0,5.0,87,0.00,,,0.00,,2013-03-12 04:32:00,
2013-03-12 00:43:00,62.0,58.0,29.88,ENE,70,1.0,5.0,87,0.00,,,0.00,,2013-03-12 04:43:00,
2013-03-12 00:52:00,62.0,58.0,29.87,SE,135,1.0,2.0,87,0.00,,,0.00,,2013-03-12 04:52:00,
2013-03-12 01:02:00,62.0,59.0,29.86,SSW,193,2.0,4.0,89,0.00,,,0.00,,2013-03-12 05:02:00,
2013-03-12 01:12:00,62.0,59.0,29.86,SSW,193,2.0,4.0,89,0.00,,,0.00,,2013-03-12 05:12:00,
2013-03-12 01:22:00,62.0,59.0,29.86,ENE,72,0.0,5.0,90,0.00,,,0.00,,2013-03-12 05:22:00,
2013-03-12 01:32:00,62.0,59.0,29.86,East,101,0.0,7.0,90,0.01,,,0.01,,2013-03-12 05:32:00,
2013-03-12 01:42:00,62.0,59.0,29.86,East,101,0.0,7.0,90,0.01,,,0.01,,2013-03-12 05:42:00,
2013-03-12 01:52:00,62.0,60.0,29.87,SW,221,2.0,4.0,92,0.01,,,0.01,,2013-03-12 05:52:00,
2013-03-12 02:02:00,61.0,59.0,29.86,WNW,287,0.0,3.0,93,0.04,,,0.04,,2013-03-12 06:02:00,
2013-03-12 02:12:00,61.0,59.0,29.86,WNW,287,0.0,3.0,93,0.04,,,0.04,,2013-03-12 06:12:00,
2013-03-12 02:22:00,61.0,59.0,29.85,ESE,108,0.0,2.0,94,0.04,,,0.04,,2013-03-12 06:22:00,
2013-03-12 02:32:00,61.0,59.0,29.85,SSW,205,0.0,1.0,94,0.04,,,0.05,,2013-03-12 06:32:00,
2013-03-12 02:42:00,61.0,59.0,29.85,SSW,205,0.0,1.0,94,0.04,,,0.05,,2013-03-12 06:42:00,
2013-03-12 02:52:00,61.0,60.0,29.85,East,95,1.0,3.0,95,0.03,,,0.05,,2013-03-12 06:52:00,
2013-03-12 03:02:00,61.0,60.0,29.85,SSE,148,0.0,5.0,95,0.02,,,0.06,,2013-03-12 07:02:00,
2013-03-12 03:12:00,61.0,60.0,29.85,SSE,148,0.0,5.0,95,0.02,,,0.06,,2013-03-12 07:12:00,
2013-03-12 03:22:00,61.0,60.0,29.84,WSW,248,0.0,5.0,95,0.05,,,0.09,,2013-03-12 07:22:00,
2013-03-12 03:32:00,61.0,60.0,29.84,South,188,1.0,6.0,95,0.06,,,0.11,,2013-03-12 07:32:00,
2013-03-12 03:42:00,61.0,60.0,29.84,South,188,1.0,6.0,95,0.06,,,0.11,,2013-03-12 07:42:00,
2013-03-12 03:52:00,61.0,60.0,29.84,West,278,1.0,4.0,95,0.08,,,0.13,,2013-03-12 07:52:00,
2013-03-12 04:02:00,61.0,60.0,29.84,SW,229,1.0,3.0,95,0.07,,,0.14,,2013-03-12 08:02:00,
2013-03-12 04:13:00,61.0,60.0,29.84,SW,229,1.0,3.0,95,0.07,,,0.14,,2013-03-12 08:13:00,
2013-03-12 04:22:00,61.0,60.0,29.84,South,186,1.0,5.0,95,0.08,,,0.17,,2013-03-12 08:22:00,
2013-03-12 04:33:00,61.0,60.0,29.83,SE,136,1.0,3.0,95,0.11,,,0.22,,2013-03-12 08:33:00,
2013-03-12 04:42:00,61.0,60.0,29.83,SE,136,1.0,3.0,95,0.11,,,0.22,,2013-03-12 08:42:00,
2013-03-12 04:52:00,61.0,60.0,29.83,North,6,0.0,4.0,96,0.13,,,0.26,,2013-03-12 08:52:00,
2013-03-12 05:03:00,61.0,60.0,29.83,SSW,205,0.0,2.0,96,0.14,,,0.29,,2013-03-12 09:03:00,
2013-03-12 05:12:00,61.0,60.0,29.83,SSW,205,0.0,2.0,96,0.14,,,0.29,,2013-03-12 09:12:00,
2013-03-12 05:22:00,61.0,60.0,29.82,WSW,240,0.0,2.0,96,0.15,,,0.32,,2013-03-12 09:22:00,
2013-03-12 05:32:00,61.0,60.0,29.83,West,265,0.0,1.0,96,0.09,,,0.32,,2013-03-12 09:32:00,
2013-03-12 05:42:00,61.0,60.0,29.83,West,265,0.0,1.0,96,0.09,,,0.32,,2013-03-12 09:42:00,
2013-03-12 05:52:00,61.0,60.0,29.84,WSW,253,1.0,2.0,96,0.10,,,0.36,,2013-03-12 09:52:00,
2013-03-12 06:02:00,61.0,60.0,29.83,East,101,2.0,4.0,96,0.11,,,0.40,,2013-03-12 10:02:00,
2013-03-12 06:12:00,61.0,60.0,29.83,East,101,2.0,4.0,96,0.11,,,0.40,,2013-03-12 10:12:00,
2013-03-12 06:22:00,61.0,60.0,29.83,SW,231,0.0,4.0,96,0.12,,,0.44,,2013-03-12 10:22:00,
2013-03-12 06:32:00,61.0,60.0,29.83,West,277,0.0,3.0,96,0.14,,,0.46,,2013-03-12 10:32:00,
2013-03-12 06:42:00,61.0,60.0,29.83,West,277,0.0,3.0,96,0.14,,,0.46,,2013-03-12 10:42:00,
2013-03-12 06:53:00,61.0,60.0,29.83,SSE,165,0.0,6.0,96,0.11,,,0.47,,2013-03-12 10:53:00,
2013-03-12 07:02:00,61.0,60.0,29.82,West,266,1.0,5.0,96,0.07,,,0.47,,2013-03-12 11:02:00,
2013-03-12 07:12:00,61.0,60.0,29.82,West,266,1.0,5.0,96,0.07,,,0.47,,2013-03-12 11:12:00,
2013-03-12 07:22:00,62.0,61.0,29.82,WSW,248,1.0,5.0,96,0.03,,,0.47,,2013-03-12 11:22:00,
2013-03-12 07:32:00,62.0,61.0,29.82,WSW,250,1.0,4.0,96,0.01,,,0.47,,2013-03-12 11:32:00,
2013-03-12 07:42:00,62.0,61.0,29.82,WSW,250,1.0,4.0,96,0.01,,,0.47,,2013-03-12 11:42:00,
2013-03-12 07:52:00,62.0,61.0,29.82,WSW,253,0.0,3.0,96,0.00,,,0.47,,2013-03-12 11:52:00,
2013-03-12 08:02:00,62.0,61.0,29.82,WSW,253,1.0,3.0,96,0.00,,,0.47,,2013-03-12 12:02:00,
2013-03-12 08:12:00,62.0,61.0,29.82,WSW,253,1.0,3.0,96,0.00,,,0.47,,2013-03-12 12:12:00,
2013-03-12 08:22:00,62.0,61.0,29.82,WSW,249,0.0,3.0,96,0.00,,,0.47,,2013-03-12 12:22:00,
2013-03-12 08:32:00,62.0,61.0,29.83,WSW,249,0.0,3.0,96,0.00,,,0.47,,2013-03-12 12:32:00,
2013-03-12 08:42:00,62.0,61.0,29.83,WSW,249,0.0,3.0,96,0.00,,,0.47,,2013-03-12 12:42:00,
2013-03-12 08:52:00,62.0,61.0,29.83,South,187,1.0,5.0,96,0.01,,,0.48,,2013-03-12 12:52:00,
2013-03-12 09:02:00,62.0,61.0,29.83,WSW,243,2.0,4.0,96,0.03,,,0.50,,2013-03-12 13:02:00,
2013-03-12 09:12:00,62.0,61.0,29.83,WSW,243,2.0,4.0,96,0.03,,,0.50,,2013-03-12 13:12:00,
2013-03-12 09:22:00,62.0,61.0,29.85,WSW,245,1.0,4.0,96,0.03,,,0.50,,2013-03-12 13:22:00,
2013-03-12 09:32:00,62.0,61.0,29.85,WSW,248,2.0,6.0,96,0.03,,,0.50,,2013-03-12 13:32:00,
2013-03-12 09:42:00,62.0,61.0,29.85,WSW,248,2.0,6.0,96,0.03,,,0.50,,2013-03-12 13:42:00,
2013-03-12 09:52:00,62.0,61.0,29.85,NW,311,3.0,6.0,96,0.03,,,0.51,,2013-03-12 13:52:00,
2013-03-12 10:02:00,62.0,61.0,29.86,SW,224,1.0,6.0,96,0.01,,,0.51,,2013-03-12 14:02:00,
2013-03-12 10:12:00,62.0,61.0,29.86,SW,224,1.0,6.0,96,0.01,,,0.51,,2013-03-12 14:12:00,
2013-03-12 10:22:00,63.0,62.0,29.86,West,271,1.0,8.0,96,0.01,,,0.51,,2013-03-12 14:22:00,
2013-03-12 10:33:00,63.0,62.0,29.86,WSW,257,2.0,7.0,96,0.01,,,0.51,,2013-03-12 14:33:00,
2013-03-12 10:42:00,63.0,62.0,29.86,WSW,257,2.0,7.0,96,0.01,,,0.51,,2013-03-12 14:42:00,
2013-03-12 10:53:00,63.0,62.0,29.86,WSW,250,1.0,7.0,96,0.00,,,0.51,,2013-03-12 14:53:00,
2013-03-12 11:02:00,63.0,62.0,29.87,West,265,0.0,4.0,95,0.00,,,0.51,,2013-03-12 15:02:00,
2013-03-12 11:13:00,63.0,62.0,29.87,West,265,0.0,4.0,95,0.00,,,0.51,,2013-03-12 15:13:00,
2013-03-12 11:22:00,63.0,61.0,29.86,SW,229,2.0,5.0,94,0.00,,,0.51,,2013-03-12 15:22:00,
2013-03-12 11:32:00,63.0,62.0,29.87,NW,309,1.0,3.0,95,0.00,,,0.51,,2013-03-12 15:32:00,
2013-03-12 11:42:00,63.0,62.0,29.87,NW,309,1.0,3.0,95,0.00,,,0.51,,2013-03-12 15:42:00,
2013-03-12 11:53:00,64.0,62.0,29.87,West,267,2.0,6.0,92,0.00,,,0.51,,2013-03-12 15:53:00,
2013-03-12 12:03:00,64.0,62.0,29.88,West,268,0.0,2.0,93,0.00,,,0.51,,2013-03-12 16:03:00,
2013-03-12 12:12:00,64.0,62.0,29.88,West,268,0.0,2.0,93,0.00,,,0.51,,2013-03-12 16:12:00,
2013-03-12 12:23:00,66.0,62.0,29.88,SSW,205,4.0,10.0,87,0.00,,,0.51,,2013-03-12 16:23:00,
2013-03-12 12:33:00,65.0,61.0,29.87,SW,217,2.0,6.0,87,0.00,,,0.51,,2013-03-12 16:33:00,
2013-03-12 12:43:00,65.0,61.0,29.87,SW,217,2.0,6.0,87,0.00,,,0.51,,2013-03-12 16:43:00,
2013-03-12 12:53:00,66.0,62.0,29.87,West,260,0.0,6.0,87,0.00,,,0.51,,2013-03-12 16:53:00,
2013-03-12 13:03:00,66.0,61.0,29.87,WNW,302,2.0,3.0,85,0.00,,,0.51,,2013-03-12 17:03:00,
2013-03-12 13:13:00,66.0,61.0,29.87,WNW,302,2.0,3.0,85,0.00,,,0.51,,2013-03-12 17:13:00,
2013-03-12 13:23:00,65.0,60.0,29.88,WNW,290,2.0,5.0,84,0.00,,,0.51,,2013-03-12 17:23:00,
2013-03-12 13:34:00,65.0,60.0,29.88,West,259,1.0,5.0,84,0.00,,,0.51,,2013-03-12 17:34:00,
2013-03-12 13:43:00,65.0,60.0,29.88,West,259,1.0,5.0,84,0.00,,,0.51,,2013-03-12 17:43:00,
2013-03-12 13:54:00,66.0,60.0,29.87,SE,145,2.0,7.0,80,0.00,,,0.51,,2013-03-12 17:54:00,
2013-03-12 14:03:00,68.0,60.0,29.86,SSW,211,3.0,8.0,76,0.00,,,0.51,,2013-03-12 18:03:00,
2013-03-12 14:13:00,69.0,59.0,29.85,WSW,245,2.0,6.0,71,0.00,,,0.51,,2013-03-12 18:13:00,
2013-03-12 14:23:00,69.0,59.0,29.85,WSW,245,2.0,6.0,71,0.00,,,0.51,,2013-03-12 18:23:00,
2013-03-12 14:33:00,70.0,56.0,29.84,WSW,252,2.0,7.0,62,0.00,,,0.51,,2013-03-12 18:33:00,
2013-03-12 14:42:00,70.0,56.0,29.84,WSW,252,2.0,7.0,62,0.00,,,0.51,,2013-03-12 18:42:00,
2013-03-12 14:53:00,71.0,56.0,29.83,West,267,2.0,5.0,60,0.00,,,0.51,,2013-03-12 18:53:00,
2013-03-12 15:03:00,72.0,53.0,29.83,SE,131,3.0,5.0,51,0.00,,,0.51,,2013-03-12 19:03:00,
2013-03-12 15:13:00,72.0,53.0,29.83,SE,131,3.0,5.0,51,0.00,,,0.51,,2013-03-12 19:13:00,
2013-03-12 15:23:00,72.0,51.0,29.83,NNW,330,1.0,4.0,48,0.00,,,0.51,,2013-03-12 19:23:00,
2013-03-12 15:33:00,72.0,50.0,29.83,SW,215,1.0,4.0,46,0.00,,,0.51,,2013-03-12 19:33:00,
2013-03-12 15:43:00,72.0,50.0,29.83,SW,215,1.0,4.0,46,0.00,,,0.51,,2013-03-12 19:43:00,
2013-03-12 15:53:00,73.0,50.0,29.83,West,260,2.0,10.0,45,0.00,,,0.51,,2013-03-12 19:53:00,
2013-03-12 16:02:00,73.0,51.0,29.83,SW,226,3.0,7.0,46,0.00,,,0.51,,2013-03-12 20:02:00,
2013-03-12 16:12:00,73.0,51.0,29.83,SW,226,3.0,7.0,46,0.00,,,0.51,,2013-03-12 20:12:00,
2013-03-12 16:23:00,74.0,52.0,29.83,SW,217,1.0,3.0,47,0.00,,,0.51,,2013-03-12 20:23:00,
2013-03-12 16:33:00,73.0,51.0,29.84,NW,311,1.0,5.0,46,0.00,,,0.51,,2013-03-12 20:33:00,
2013-03-12 16:42:00,73.0,51.0,29.84,NW,311,1.0,5.0,46,0.00,,,0.51,,2013-03-12 20:42:00,
2013-03-12 16:53:00,74.0,51.0,29.83,SSE,152,2.0,5.0,45,0.00,,,0.51,,2013-03-12 20:53:00,
2013-03-12 17:03:00,73.0,49.0,29.83,West,260,1.0,3.0,42,0.00,,,0.51,,2013-03-12 21:03:00,
2013-03-12 17:13:00,73.0,49.0,29.83,West,260,1.0,3.0,42,0.00,,,0.51,,2013-03-12 21:13:00,
2013-03-12 17:22:00,72.0,49.0,29.83,WNW,302,2.0,7.0,45,0.00,,,0.51,,2013-03-12 21:22:00,
2013-03-12 17:33:00,71.0,50.0,29.84,WNW,294,1.0,7.0,48,0.00,,,0.51,,2013-03-12 21:33:00,
2013-03-12 17:43:00,71.0,50.0,29.84,WNW,294,1.0,7.0,48,0.00,,,0.51,,2013-03-12 21:43:00,
2013-03-12 17:53:00,69.0,51.0,29.84,NW,314,1.0,4.0,52,0.00,,,0.51,,2013-03-12 21:53:00,
2013-03-12 18:02:00,68.0,49.0,29.85,West,271,0.0,5.0,50,0.00,,,0.51,,2013-03-12 22:02:00,
2013-03-12 18:13:00,68.0,49.0,29.85,West,271,0.0,5.0,50,0.00,,,0.51,,2013-03-12 22:13:00,
2013-03-12 18:23:00,67.0,50.0,29.85,West,264,2.0,6.0,54,0.00,,,0.51,,2013-03-12 22:23:00,
2013-03-12 18:33:00,66.0,51.0,29.85,SW,233,1.0,3.0,58,0.00,,,0.51,,2013-03-12 22:33:00,
2013-03-12 18:43:00,66.0,51.0,29.85,SW,233,1.0,3.0,58,0.00,,,0.51,,2013-03-12 22:43:00,
2013-03-12 18:53:00,66.0,51.0,29.85,SE,136,0.0,5.0,59,0.00,,,0.51,,2013-03-12 22:53:00,
2013-03-12 19:02:00,65.0,50.0,29.86,SW,214,1.0,5.0,59,0.00,,,0.51,,2013-03-12 23:02:00,
2013-03-12 19:12:00,65.0,50.0,29.86,SW,214,1.0,5.0,59,0.00,,,0.51,,2013-03-12 23:12:00,
2013-03-12 19:23:00,64.0,50.0,29.87,SSW,200,0.0,1.0,61,0.00,,,0.51,,2013-03-12 23:23:00,
2013-03-12 19:34:00,63.0,51.0,29.88,WSW,246,0.0,2.0,65,0.00,,,0.51,,2013-03-12 23:34:00,
2013-03-12 19:43:00,63.0,51.0,29.88,WSW,246,0.0,2.0,65,0.00,,,0.51,,2013-03-12 23:43:00,
2013-03-12 19:53:00,61.0,50.0,29.88,WSW,246,0.0,1.0,68,0.00,,,0.51,,2013-03-12 23:53:00,
2013-03-12 20:03:00,59.0,49.0,29.89,WSW,246,1.0,1.0,70,0.00,,,0.51,,2013-03-13 00:03:00,
2013-03-12 20:13:00,59.0,49.0,29.89,WSW,246,1.0,1.0,70,0.00,,,0.51,,2013-03-13 00:13:00,
2013-03-12 20:23:00,58.0,49.0,29.90,WSW,246,0.0,0.0,73,0.00,,,0.51,,2013-03-13 00:23:00,
2013-03-12 20:33:00,56.0,49.0,29.91,WSW,246,0.0,1.0,76,0.00,,,0.51,,2013-03-13 00:33:00,
2013-03-12 20:42:00,56.0,49.0,29.91,WSW,246,0.0,1.0,76,0.00,,,0.51,,2013-03-13 00:42:00,
2013-03-12 20:53:00,55.0,49.0,29.91,WSW,246,0.0,1.0,81,0.00,,,0.51,,2013-03-13 00:53:00,
2013-03-12 21:03:00,54.0,49.0,29.92,WSW,246,0.0,1.0,82,0.00,,,0.51,,2013-03-13 01:03:00,
2013-03-12 21:13:00,54.0,49.0,29.92,WSW,246,0.0,1.0,82,0.00,,,0.51,,2013-03-13 01:13:00,
2013-03-12 21:22:00,53.0,47.0,29.93,WSW,246,0.0,1.0,81,0.00,,,0.51,,2013-03-13 01:22:00,
2013-03-12 21:32:00,53.0,47.0,29.93,WSW,246,0.0,1.0,81,0.00,,,0.51,,2013-03-13 01:32:00,
2013-03-12 21:42:00,53.0,47.0,29.93,WSW,246,0.0,1.0,81,0.00,,,0.51,,2013-03-13 01:42:00,
2013-03-12 21:53:00,52.0,47.0,29.93,WSW,246,0.0,0.0,83,0.00,,,0.51,,2013-03-13 01:53:00,
2013-03-12 22:02:00,52.0,47.0,29.94,WSW,246,0.0,1.0,83,0.00,,,0.51,,2013-03-13 02:02:00,
2013-03-12 22:12:00,52.0,47.0,29.94,WSW,246,0.0,1.0,83,0.00,,,0.51,,2013-03-13 02:12:00,
2013-03-12 22:22:00,51.0,46.0,29.94,WSW,246,0.0,1.0,82,0.00,,,0.51,,2013-03-13 02:22:00,
2013-03-12 22:32:00,51.0,46.0,29.95,SW,232,1.0,2.0,83,0.00,,,0.51,,2013-03-13 02:32:00,
2013-03-12 22:43:00,51.0,46.0,29.95,SW,232,1.0,2.0,83,0.00,,,0.51,,2013-03-13 02:43:00,
2013-03-12 22:53:00,52.0,45.0,29.95,WSW,250,1.0,2.0,78,0.00,,,0.51,,2013-03-13 02:53:00,
2013-03-12 23:02:00,52.0,43.0,29.96,SSW,211,1.0,2.0,72,0.00,,,0.51,,2013-03-13 03:02:00,
2013-03-12 23:13:00,52.0,43.0,29.96,SSW,211,1.0,2.0,72,0.00,,,0.51,,2013-03-13 03:13:00,
2013-03-12 23:22:00,53.0,44.0,29.96,WSW,238,0.0,1.0,71,0.00,,,0.51,,2013-03-13 03:22:00,
2013-03-12 23:32:00,53.0,43.0,29.97,WSW,246,1.0,2.0,70,0.00,,,0.51,,2013-03-13 03:32:00,
2013-03-12 23:42:00,53.0,43.0,29.97,WSW,246,1.0,2.0,70,0.00,,,0.51,,2013-03-13 03:42:00,
2013-03-12 23:53:00,52.0,42.0,29.97,SW,236,1.0,2.0,69,0.00,,,0.51,,2013-03-13 03:53:00,